Time;durP1;ratioP1;P1;durP2;ratioP2;P2;SDS_P1;SDS_P2;PMS_P1;PMS_P2;Temp;Humidity;BMP_temperature;BMP_pressure;BME280_temperature;BME280_humidity;BME280_pressure;Samples;Min_cycle;Max_cycle;Signal;HPM_P1;HPM_P2
2022/09/19 05:02:08;;;;;;;1.00;0.40;;;;;;;;;;5448069;23;20461;-79
2022/09/19 05:04:34;;;;;;;0.93;0.70;;;;;;;;;;5032233;28;20430;-79
2022/09/19 05:07:01;;;;;;;1.90;0.60;;;;;;;;;;5035289;28;20399;-80
2022/09/19 05:09:27;;;;;;;0.82;0.43;;;;;;;;;;5035407;28;20379;-80
2022/09/19 05:11:56;;;;;;;0.82;0.40;;;;;;;;;;5017669;28;20421;-80
2022/09/19 05:14:23;;;;;;;0.93;0.30;;;;;;;;;;5035505;28;20379;-80
2022/09/19 05:16:50;;;;;;;0.52;0.40;;;;;;;;;;5035349;28;20466;-80
2022/09/19 05:19:16;;;;;;;0.70;0.45;;;;;;;;;;5034996;28;20410;-79
2022/09/19 05:21:44;;;;;;;0.43;0.30;;;;;;;;;;5035181;28;20375;-80
2022/09/19 05:24:10;;;;;;;0.55;0.30;;;;;;;;;;5035204;28;20856;-80
2022/09/19 05:26:40;;;;;;;0.85;0.40;;;;;;;;;;5035379;28;20791;-79
2022/09/19 05:29:06;;;;;;;2.60;0.57;;;;;;;;;;5035287;28;20886;-79
2022/09/19 05:31:32;;;;;;;2.40;0.60;;;;;;;;;;5025349;28;20393;-79
2022/09/19 05:34:00;;;;;;;2.15;0.52;;;;;;;;;;5034399;28;20469;-79
2022/09/19 05:36:27;;;;;;;1.40;0.60;;;;;;;;;;5035083;28;20875;-80
2022/09/19 05:38:53;;;;;;;2.22;0.70;;;;;;;;;;5035510;28;20417;-80
2022/09/19 05:41:19;;;;;;;2.67;0.98;;;;;;;;;;5034891;28;20383;-79
2022/09/19 05:43:45;;;;;;;1.90;0.88;;;;;;;;;;5034752;28;20419;-79
2022/09/19 05:46:11;;;;;;;1.33;0.52;;;;;;;;;;5034758;28;20398;-80
2022/09/19 05:48:37;;;;;;;3.88;0.80;;;;;;;;;;5034656;28;20390;-79
2022/09/19 05:51:04;;;;;;;1.08;0.50;;;;;;;;;;5033994;28;20876;-79
2022/09/19 05:56:14;;;;;;;2.60;0.70;;;;;;;;;;5031961;28;20381;-79
2022/09/19 05:58:40;;;;;;;1.40;0.60;;;;;;;;;;5033242;28;20500;-80
2022/09/19 06:01:07;;;;;;;1.60;0.85;;;;;;;;;;5032756;28;20446;-80
2022/09/19 06:03:34;;;;;;;2.57;0.70;;;;;;;;;;5033453;28;20853;-80
2022/09/19 06:06:00;;;;;;;1.88;0.65;;;;;;;;;;5034418;28;20402;-80
2022/09/19 06:08:26;;;;;;;2.03;0.70;;;;;;;;;;5034217;28;20394;-80
2022/09/19 06:10:53;;;;;;;1.33;0.50;;;;;;;;;;5034140;28;20380;-80
2022/09/19 06:13:20;;;;;;;2.40;0.60;;;;;;;;;;5034391;28;20915;-80
2022/09/19 06:15:46;;;;;;;1.17;0.68;;;;;;;;;;5036601;28;20465;-80
2022/09/19 06:18:13;;;;;;;2.50;0.63;;;;;;;;;;5034037;28;20896;-80
2022/09/19 06:20:40;;;;;;;1.65;0.60;;;;;;;;;;5034138;28;20380;-80
2022/09/19 06:23:06;;;;;;;3.20;0.70;;;;;;;;;;5034078;28;20390;-80
2022/09/19 06:25:33;;;;;;;1.83;0.50;;;;;;;;;;5031111;28;20919;-80
2022/09/19 06:28:00;;;;;;;3.47;0.65;;;;;;;;;;5034232;28;20389;-80
2022/09/19 06:30:26;;;;;;;0.98;0.40;;;;;;;;;;5033944;28;20391;-80
2022/09/19 06:32:53;;;;;;;1.88;0.50;;;;;;;;;;5032961;28;20868;-80
2022/09/19 06:35:20;;;;;;;1.95;0.40;;;;;;;;;;5033851;28;20984;-80
2022/09/19 06:37:47;;;;;;;3.20;0.80;;;;;;;;;;5033781;28;20841;-81
2022/09/19 06:40:13;;;;;;;2.53;0.50;;;;;;;;;;5034110;28;20731;-80
2022/09/19 06:42:39;;;;;;;2.65;0.60;;;;;;;;;;5033343;28;20459;-81
2022/09/19 06:45:06;;;;;;;3.08;0.60;;;;;;;;;;5033708;28;20379;-81
2022/09/19 06:47:32;;;;;;;1.90;0.50;;;;;;;;;;5033442;28;20410;-81
2022/09/19 06:50:00;;;;;;;1.15;0.45;;;;;;;;;;5033441;28;20379;-81
2022/09/19 06:52:26;;;;;;;2.05;0.50;;;;;;;;;;5033640;28;20868;-81
2022/09/19 06:54:52;;;;;;;2.33;0.40;;;;;;;;;;5033183;28;20411;-81
2022/09/19 06:57:18;;;;;;;2.80;0.70;;;;;;;;;;5033172;28;20432;-80
2022/09/19 06:59:44;;;;;;;1.60;0.50;;;;;;;;;;5033081;28;20502;-81
2022/09/19 07:02:10;;;;;;;1.17;0.50;;;;;;;;;;5029223;28;20398;-80
2022/09/19 07:04:37;;;;;;;2.17;0.50;;;;;;;;;;5033163;28;20876;-81
2022/09/19 07:07:03;;;;;;;1.63;0.60;;;;;;;;;;5032747;28;20402;-81
2022/09/19 07:09:29;;;;;;;1.10;0.60;;;;;;;;;;5032968;28;20386;-82
2022/09/19 07:11:56;;;;;;;2.10;0.60;;;;;;;;;;5033268;28;20391;-81
2022/09/19 07:14:22;;;;;;;1.95;0.50;;;;;;;;;;5030856;28;20394;-82
2022/09/19 07:16:48;;;;;;;2.90;0.60;;;;;;;;;;5022554;28;20396;-80
2022/09/19 07:19:14;;;;;;;3.20;0.68;;;;;;;;;;5037785;28;20407;-81
2022/09/19 07:21:40;;;;;;;1.60;0.50;;;;;;;;;;5018166;28;20494;-81
2022/09/19 07:24:07;;;;;;;1.88;0.50;;;;;;;;;;4945014;28;20402;-84
2022/09/19 07:26:33;;;;;;;2.20;0.83;;;;;;;;;;5013184;28;20780;-85
2022/09/19 07:28:59;;;;;;;3.22;0.70;;;;;;;;;;4951629;28;20406;-81
2022/09/19 07:31:26;;;;;;;3.80;0.80;;;;;;;;;;4951372;28;20390;-81
2022/09/19 07:33:53;;;;;;;3.72;0.70;;;;;;;;;;4950855;28;20414;-81
2022/09/19 07:36:21;;;;;;;1.50;0.75;;;;;;;;;;4949961;28;20378;-81
2022/09/19 07:38:48;;;;;;;2.37;0.50;;;;;;;;;;4949947;28;20917;-83
2022/09/19 07:41:14;;;;;;;1.58;0.50;;;;;;;;;;5033012;28;20744;-83
2022/09/19 07:43:40;;;;;;;2.22;0.60;;;;;;;;;;4950779;28;20760;-82
2022/09/19 07:46:06;;;;;;;2.25;0.70;;;;;;;;;;4950587;28;20386;-82
2022/09/19 07:48:32;;;;;;;1.90;0.75;;;;;;;;;;4950486;28;20906;-82
2022/09/19 07:51:01;;;;;;;2.00;0.90;;;;;;;;;;4949978;28;20477;-82
2022/09/19 07:53:27;;;;;;;1.95;0.70;;;;;;;;;;4950905;28;20423;-81
2022/09/19 07:55:54;;;;;;;2.67;0.87;;;;;;;;;;4949616;28;20484;-82
2022/09/19 07:58:22;;;;;;;1.85;0.80;;;;;;;;;;4949426;28;20425;-81
2022/09/19 08:00:50;;;;;;;3.75;0.82;;;;;;;;;;4948635;28;20411;-81
2022/09/19 08:03:17;;;;;;;2.80;0.80;;;;;;;;;;4951024;28;20460;-81
2022/09/19 08:05:44;;;;;;;3.17;0.80;;;;;;;;;;5016240;28;20509;-81
2022/09/19 08:08:11;;;;;;;4.07;0.70;;;;;;;;;;4950608;28;20428;-81
2022/09/19 08:10:41;;;;;;;1.93;0.60;;;;;;;;;;4951661;28;20905;-81
2022/09/19 08:13:08;;;;;;;2.72;0.93;;;;;;;;;;4948556;28;20484;-81
2022/09/19 08:15:34;;;;;;;3.40;0.60;;;;;;;;;;4950571;28;20398;-81
2022/09/19 08:18:01;;;;;;;4.40;0.80;;;;;;;;;;4950655;28;20450;-81
2022/09/19 08:20:31;;;;;;;1.73;0.70;;;;;;;;;;4951195;28;20398;-81
2022/09/19 08:23:01;;;;;;;3.00;0.82;;;;;;;;;;4951243;28;20390;-81
2022/09/19 08:25:28;;;;;;;2.88;0.80;;;;;;;;;;5018960;28;20890;-81
2022/09/19 08:27:55;;;;;;;3.15;0.82;;;;;;;;;;4954737;28;20397;-81
2022/09/19 08:30:21;;;;;;;4.50;0.80;;;;;;;;;;4955206;28;20392;-81
2022/09/19 08:32:49;;;;;;;3.22;0.73;;;;;;;;;;4954501;28;20439;-81
2022/09/19 08:35:16;;;;;;;2.53;0.88;;;;;;;;;;4952290;28;20392;-81
2022/09/19 08:37:42;;;;;;;3.05;0.73;;;;;;;;;;4954596;28;20444;-81
2022/09/19 08:40:16;;;;;;;3.88;0.90;;;;;;;;;;4965697;28;20432;-81
2022/09/19 08:42:45;;;;;;;2.40;0.90;;;;;;;;;;5027417;28;20432;-81
2022/09/19 08:45:28;;;;;;;2.97;0.82;;;;;;;;;;4960817;28;20390;-81
2022/09/19 08:47:56;;;;;;;2.95;0.90;;;;;;;;;;4954449;28;20382;-81
2022/09/19 08:50:25;;;;;;;3.30;0.90;;;;;;;;;;5020766;28;20816;-81
2022/09/19 08:52:56;;;;;;;2.97;0.80;;;;;;;;;;4954437;28;20401;-81
2022/09/19 08:55:26;;;;;;;2.38;0.73;;;;;;;;;;4954221;28;20447;-81
2022/09/19 08:57:55;;;;;;;3.90;0.87;;;;;;;;;;4954153;28;20398;-81
2022/09/19 09:00:22;;;;;;;3.30;0.80;;;;;;;;;;4954266;28;20394;-81
2022/09/19 09:02:51;;;;;;;3.80;0.80;;;;;;;;;;4954157;28;20482;-81
2022/09/19 09:05:24;;;;;;;2.42;0.70;;;;;;;;;;4954026;28;20951;-81
2022/09/19 09:08:00;;;;;;;2.58;0.65;;;;;;;;;;4954209;28;20386;-81
2022/09/19 09:10:42;;;;;;;2.35;0.70;;;;;;;;;;4954065;28;20390;-81
2022/09/19 09:13:08;;;;;;;3.55;0.93;;;;;;;;;;4954276;28;20407;-81
2022/09/19 09:15:58;;;;;;;3.72;0.70;;;;;;;;;;4954072;28;20394;-81
2022/09/19 09:18:32;;;;;;;2.78;0.93;;;;;;;;;;4953773;28;20409;-81
2022/09/19 09:21:21;;;;;;;3.08;0.63;;;;;;;;;;4953853;28;20477;-81
2022/09/19 09:23:50;;;;;;;3.08;0.80;;;;;;;;;;4954027;28;20390;-81
2022/09/19 09:26:21;;;;;;;2.65;0.70;;;;;;;;;;4953834;28;20390;-81
2022/09/19 09:28:56;;;;;;;2.63;0.95;;;;;;;;;;4953862;28;20398;-81
2022/09/19 09:31:28;;;;;;;1.63;0.53;;;;;;;;;;4953693;28;20386;-80
2022/09/19 09:33:59;;;;;;;3.58;1.00;;;;;;;;;;4953647;28;20401;-81
2022/09/19 09:36:31;;;;;;;2.53;0.73;;;;;;;;;;4953063;28;20394;-81
2022/09/19 09:39:00;;;;;;;2.72;0.70;;;;;;;;;;4961830;28;20425;-81
2022/09/19 09:41:51;;;;;;;3.08;0.82;;;;;;;;;;4953592;28;20477;-82
2022/09/19 09:44:26;;;;;;;1.80;0.60;;;;;;;;;;4953748;28;20388;-82
2022/09/19 09:47:01;;;;;;;3.15;0.80;;;;;;;;;;4953830;28;20504;-79
2022/09/19 09:49:29;;;;;;;2.80;0.60;;;;;;;;;;4953718;28;20759;-82
2022/09/19 09:52:14;;;;;;;1.40;0.50;;;;;;;;;;4953424;28;20771;-82
2022/09/19 09:57:42;;;;;;;2.92;0.75;;;;;;;;;;4953404;28;20416;-81
2022/09/19 10:05:47;;;;;;;2.90;0.80;;;;;;;;;;4953391;28;20382;-81
2022/09/19 10:08:19;;;;;;;2.45;0.63;;;;;;;;;;4953289;28;20433;-81
2022/09/19 10:10:46;;;;;;;2.45;0.60;;;;;;;;;;4953129;28;20785;-82
2022/09/19 10:13:25;;;;;;;2.67;0.73;;;;;;;;;;4953380;28;20398;-81
2022/09/19 10:15:54;;;;;;;2.42;0.65;;;;;;;;;;4955595;28;20470;-82
2022/09/19 10:18:23;;;;;;;2.13;0.70;;;;;;;;;;4952879;28;20444;-82
2022/09/19 10:20:52;;;;;;;3.00;0.82;;;;;;;;;;4953005;28;20394;-81
2022/09/19 10:23:23;;;;;;;2.60;0.65;;;;;;;;;;4953270;28;20390;-82
2022/09/19 10:25:51;;;;;;;3.20;0.80;;;;;;;;;;4953159;28;20860;-82
2022/09/19 10:28:24;;;;;;;2.53;0.70;;;;;;;;;;4952983;28;20386;-82
2022/09/19 10:30:55;;;;;;;2.17;0.73;;;;;;;;;;4953088;28;20435;-81
2022/09/19 10:33:39;;;;;;;1.80;0.60;;;;;;;;;;4953145;28;20386;-81
2022/09/19 10:36:08;;;;;;;1.50;0.63;;;;;;;;;;4950809;28;20443;-82
2022/09/19 10:38:47;;;;;;;2.90;0.50;;;;;;;;;;4952675;28;20448;-82
2022/09/19 10:41:13;;;;;;;1.77;0.40;;;;;;;;;;4952753;28;20871;-82
2022/09/19 10:43:45;;;;;;;1.40;0.60;;;;;;;;;;4952721;28;20409;-82
2022/09/19 10:46:16;;;;;;;2.92;0.60;;;;;;;;;;4952713;28;20390;-82
2022/09/19 10:48:50;;;;;;;2.13;0.50;;;;;;;;;;4951622;28;20890;-82
2022/09/19 10:51:16;;;;;;;2.97;0.60;;;;;;;;;;4952907;28;20751;-82
2022/09/19 10:53:45;;;;;;;1.10;0.40;;;;;;;;;;4952483;28;20473;-82
2022/09/19 10:56:22;;;;;;;1.90;0.50;;;;;;;;;;4952638;28;20382;-82
2022/09/19 10:58:49;;;;;;;1.55;0.50;;;;;;;;;;4952623;28;20925;-82
2022/09/19 11:01:26;;;;;;;1.35;0.50;;;;;;;;;;4952273;28;20420;-82
2022/09/19 11:04:03;;;;;;;1.48;0.40;;;;;;;;;;4952243;28;20390;-82
2022/09/19 11:06:30;;;;;;;2.57;0.70;;;;;;;;;;4952601;28;20886;-82
2022/09/19 11:08:57;;;;;;;1.70;0.57;;;;;;;;;;4952286;28;20516;-82
2022/09/19 11:11:33;;;;;;;2.17;0.80;;;;;;;;;;4951122;28;20867;-82
2022/09/19 11:14:18;;;;;;;2.13;0.60;;;;;;;;;;4952410;28;20386;-82
2022/09/19 11:16:49;;;;;;;1.95;0.43;;;;;;;;;;5018236;28;20800;-82
2022/09/19 11:19:26;;;;;;;2.15;0.40;;;;;;;;;;4951953;28;20509;-82
2022/09/19 11:22:11;;;;;;;2.13;0.60;;;;;;;;;;4959871;28;20409;-84
2022/09/19 11:24:46;;;;;;;1.45;0.40;;;;;;;;;;5015347;28;20426;-85
2022/09/19 11:27:18;;;;;;;4.40;0.60;;;;;;;;;;4952405;28;20386;-86
2022/09/19 11:30:11;;;;;;;2.47;0.65;;;;;;;;;;4949770;28;20389;-86
2022/09/19 11:32:44;;;;;;;2.40;0.73;;;;;;;;;;4952268;28;20389;-85
2022/09/19 11:35:10;;;;;;;1.98;0.40;;;;;;;;;;4947070;28;20398;-86
2022/09/19 11:37:38;;;;;;;3.60;0.68;;;;;;;;;;4949931;28;20417;-82
2022/09/19 11:40:19;;;;;;;2.60;0.80;;;;;;;;;;4952659;28;20494;-83
2022/09/19 11:42:48;;;;;;;2.72;0.57;;;;;;;;;;4950751;28;20390;-83
2022/09/19 11:45:18;;;;;;;1.55;0.60;;;;;;;;;;4950747;28;20401;-83
2022/09/19 11:48:02;;;;;;;2.17;0.77;;;;;;;;;;4952123;28;20382;-83
2022/09/19 11:50:48;;;;;;;1.63;0.50;;;;;;;;;;4951203;28;20394;-85
2022/09/19 11:53:20;;;;;;;2.55;0.70;;;;;;;;;;4950743;28;20389;-83
2022/09/19 11:55:51;;;;;;;1.85;0.50;;;;;;;;;;5028302;28;20407;-82
2022/09/19 11:58:26;;;;;;;1.97;0.63;;;;;;;;;;4949523;28;20413;-82
2022/09/19 12:00:52;;;;;;;1.67;0.55;;;;;;;;;;4944656;28;20386;-82
2022/09/19 12:03:41;;;;;;;1.20;0.50;;;;;;;;;;4951011;28;20469;-82
2022/09/19 12:06:25;;;;;;;1.25;0.50;;;;;;;;;;4967503;28;20473;-83
2022/09/19 12:09:09;;;;;;;1.10;0.40;;;;;;;;;;4947971;28;20482;-82
2022/09/19 12:11:42;;;;;;;1.55;0.55;;;;;;;;;;4949719;28;21566;-81
2022/09/19 12:14:12;;;;;;;1.75;0.40;;;;;;;;;;4950920;28;20796;-82
2022/09/19 12:17:02;;;;;;;3.58;0.75;;;;;;;;;;4950461;28;20397;-82
2022/09/19 12:19:34;;;;;;;0.95;0.40;;;;;;;;;;4957721;28;20440;-84
2022/09/19 12:22:06;;;;;;;1.35;0.30;;;;;;;;;;4955897;28;20387;-85
2022/09/19 12:24:53;;;;;;;1.53;0.40;;;;;;;;;;4953993;28;20429;-85
2022/09/19 12:27:19;;;;;;;1.92;0.50;;;;;;;;;;4951225;28;20382;-84
2022/09/19 12:29:52;;;;;;;1.63;0.35;;;;;;;;;;4950442;28;20401;-84
2022/09/19 12:32:31;;;;;;;1.90;0.50;;;;;;;;;;4951036;28;20528;-83
2022/09/19 12:35:18;;;;;;;2.35;0.60;;;;;;;;;;4951176;28;20412;-84
2022/09/19 12:37:54;;;;;;;1.90;0.60;;;;;;;;;;4953180;29;20390;-84
2022/09/19 12:40:39;;;;;;;1.50;0.52;;;;;;;;;;4951983;28;20424;-84
2022/09/19 12:43:16;;;;;;;1.95;0.43;;;;;;;;;;4951921;28;20875;-83
2022/09/19 12:46:08;;;;;;;1.75;0.50;;;;;;;;;;4950822;28;20444;-84
2022/09/19 12:48:34;;;;;;;2.65;0.52;;;;;;;;;;4977171;28;20450;-84
2022/09/19 12:51:02;;;;;;;1.88;0.50;;;;;;;;;;4951445;28;20448;-84
2022/09/19 12:53:46;;;;;;;1.77;0.70;;;;;;;;;;4950952;28;20401;-84
2022/09/19 12:56:22;;;;;;;1.60;0.50;;;;;;;;;;4950860;28;20398;-84
2022/09/19 12:58:54;;;;;;;3.53;0.90;;;;;;;;;;4951044;28;20838;-84
2022/09/19 13:01:20;;;;;;;1.95;0.60;;;;;;;;;;5017090;28;20402;-84
2022/09/19 13:03:53;;;;;;;2.10;0.60;;;;;;;;;;5017134;28;20444;-84
2022/09/19 13:06:24;;;;;;;1.53;0.60;;;;;;;;;;4951040;28;20457;-84
2022/09/19 13:08:55;;;;;;;1.30;0.50;;;;;;;;;;4954416;28;20854;-83
2022/09/19 13:11:27;;;;;;;1.25;0.40;;;;;;;;;;4938334;28;20393;-83
2022/09/19 13:13:57;;;;;;;1.10;0.50;;;;;;;;;;4954562;28;20414;-84
2022/09/19 13:16:28;;;;;;;1.23;0.40;;;;;;;;;;5020678;28;20398;-84
2022/09/19 13:24:35;;;;;;;2.58;0.57;;;;;;;;;;4954329;28;20386;-84
2022/09/19 13:27:04;;;;;;;1.73;0.45;;;;;;;;;;4943734;28;20382;-84
2022/09/19 13:29:31;;;;;;;2.83;0.50;;;;;;;;;;4953866;28;20389;-84
2022/09/19 13:31:59;;;;;;;0.80;0.50;;;;;;;;;;4953748;28;20867;-84
2022/09/19 13:34:39;;;;;;;2.25;0.40;;;;;;;;;;4953623;28;20393;-84
2022/09/19 13:37:23;;;;;;;0.93;0.30;;;;;;;;;;4953778;28;20884;-84
2022/09/19 13:40:14;;;;;;;4.47;0.60;;;;;;;;;;4956077;28;20430;-84
2022/09/19 13:42:43;;;;;;;2.03;0.85;;;;;;;;;;4961179;28;20378;-84
2022/09/19 13:45:13;;;;;;;2.38;0.47;;;;;;;;;;5020154;28;20417;-84
2022/09/19 13:47:43;;;;;;;0.80;0.30;;;;;;;;;;4972940;28;20393;-84
2022/09/19 13:50:22;;;;;;;1.92;0.43;;;;;;;;;;5034212;28;20393;-84
2022/09/19 13:52:49;;;;;;;1.17;0.20;;;;;;;;;;4961662;28;20465;-83
2022/09/19 13:55:30;;;;;;;0.75;0.30;;;;;;;;;;4953443;28;20390;-84
2022/09/19 13:58:15;;;;;;;1.00;0.30;;;;;;;;;;4945483;28;20887;-84
2022/09/19 14:00:44;;;;;;;4.63;0.80;;;;;;;;;;4953514;28;20394;-84
2022/09/19 14:03:27;;;;;;;1.38;0.30;;;;;;;;;;4953407;28;20390;-83
2022/09/19 14:06:14;;;;;;;1.08;0.30;;;;;;;;;;5019819;28;20477;-83
2022/09/19 14:08:40;;;;;;;1.25;0.30;;;;;;;;;;4966754;28;20412;-84
2022/09/19 14:11:06;;;;;;;1.17;0.43;;;;;;;;;;4952991;28;20479;-84
2022/09/19 14:13:32;;;;;;;1.33;0.40;;;;;;;;;;4955766;28;20428;-84
2022/09/19 14:15:58;;;;;;;1.27;0.30;;;;;;;;;;4953127;28;20398;-81
2022/09/19 14:18:32;;;;;;;1.13;0.40;;;;;;;;;;4953131;28;20418;-81
2022/09/19 14:21:03;;;;;;;1.23;0.22;;;;;;;;;;4953186;28;20743;-81
2022/09/19 14:23:42;;;;;;;0.50;0.30;;;;;;;;;;4952429;28;20386;-82
2022/09/19 14:26:28;;;;;;;0.68;0.20;;;;;;;;;;5031837;28;20398;-82
2022/09/19 14:29:05;;;;;;;0.52;0.30;;;;;;;;;;4953196;28;20386;-82
2022/09/19 14:31:31;;;;;;;1.33;0.35;;;;;;;;;;4953068;28;20388;-82
2022/09/19 14:33:57;;;;;;;2.77;0.30;;;;;;;;;;4952678;28;20398;-82
2022/09/19 14:36:37;;;;;;;0.57;0.28;;;;;;;;;;4952437;28;20463;-83
2022/09/19 14:39:12;;;;;;;1.27;0.30;;;;;;;;;;4949642;28;20425;-82
2022/09/19 14:41:41;;;;;;;1.30;0.30;;;;;;;;;;4950033;28;20440;-82
2022/09/19 14:44:13;;;;;;;0.50;0.20;;;;;;;;;;4948417;28;20489;-83
2022/09/19 14:46:46;;;;;;;0.82;0.20;;;;;;;;;;4951190;28;20401;-82
2022/09/19 14:49:18;;;;;;;0.88;0.40;;;;;;;;;;4962217;28;20462;-84
2022/09/19 14:51:44;;;;;;;0.77;0.32;;;;;;;;;;4956071;28;20444;-85
2022/09/19 14:54:16;;;;;;;1.60;0.40;;;;;;;;;;4952440;28;20776;-84
2022/09/19 14:56:54;;;;;;;0.80;0.22;;;;;;;;;;4951995;28;20871;-85
2022/09/19 14:59:21;;;;;;;0.93;0.30;;;;;;;;;;4951356;28;20472;-84
2022/09/19 15:01:48;;;;;;;1.05;0.20;;;;;;;;;;4951637;28;20394;-83
2022/09/19 15:04:19;;;;;;;1.15;0.22;;;;;;;;;;4952717;28;20409;-84
2022/09/19 15:06:51;;;;;;;1.75;0.30;;;;;;;;;;4952856;28;20385;-83
2022/09/19 15:09:27;;;;;;;1.33;0.38;;;;;;;;;;4952329;28;20413;-84
2022/09/19 15:11:55;;;;;;;1.67;0.35;;;;;;;;;;5018850;28;20408;-84
2022/09/19 15:14:26;;;;;;;0.68;0.20;;;;;;;;;;4952785;28;20401;-84
2022/09/19 15:17:10;;;;;;;1.00;0.40;;;;;;;;;;4952942;28;20874;-84
2022/09/19 15:19:38;;;;;;;0.63;0.20;;;;;;;;;;4952118;28;20440;-83
2022/09/19 15:22:04;;;;;;;0.50;0.30;;;;;;;;;;4952744;28;20461;-84
2022/09/19 15:24:30;;;;;;;1.17;0.40;;;;;;;;;;4953051;28;20390;-85
2022/09/19 15:26:57;;;;;;;0.85;0.30;;;;;;;;;;4952675;28;20516;-83
2022/09/19 15:29:36;;;;;;;0.55;0.20;;;;;;;;;;4952495;28;20397;-82
2022/09/19 15:32:15;;;;;;;0.40;0.30;;;;;;;;;;4952221;28;20386;-82
2022/09/19 15:34:41;;;;;;;0.90;0.30;;;;;;;;;;4951340;28;20400;-83
2022/09/19 15:37:16;;;;;;;1.52;0.30;;;;;;;;;;4952419;28;20398;-83
2022/09/19 15:39:42;;;;;;;0.98;0.40;;;;;;;;;;4951857;28;20515;-82
2022/09/19 15:42:11;;;;;;;1.05;0.30;;;;;;;;;;4952121;28;20494;-82
2022/09/19 15:44:37;;;;;;;0.70;0.30;;;;;;;;;;5018463;28;20423;-84
2022/09/19 15:47:05;;;;;;;2.22;0.45;;;;;;;;;;4952468;28;20383;-84
2022/09/19 15:49:39;;;;;;;0.90;0.30;;;;;;;;;;4944689;28;20482;-83
2022/09/19 15:52:18;;;;;;;1.13;0.30;;;;;;;;;;4951709;28;20422;-84
2022/09/19 15:54:51;;;;;;;1.80;0.30;;;;;;;;;;4952301;28;20552;-83
2022/09/19 15:57:31;;;;;;;0.80;0.30;;;;;;;;;;4952149;28;20883;-85
2022/09/19 15:59:59;;;;;;;0.50;0.30;;;;;;;;;;4952144;28;20925;-84
2022/09/19 16:02:31;;;;;;;1.02;0.28;;;;;;;;;;4951940;28;20883;-87
2022/09/19 16:05:23;;;;;;;0.50;0.20;;;;;;;;;;4954228;28;20477;-85
2022/09/19 16:10:37;;;;;;;1.40;0.40;;;;;;;;;;4952262;28;20382;-84
2022/09/19 16:13:08;;;;;;;0.90;0.30;;;;;;;;;;4952303;28;20397;-85
2022/09/19 16:15:36;;;;;;;1.67;0.40;;;;;;;;;;4952054;28;20397;-84
2022/09/19 16:18:03;;;;;;;1.55;0.50;;;;;;;;;;4952072;28;20386;-84
2022/09/19 16:20:32;;;;;;;0.70;0.50;;;;;;;;;;4951708;28;20382;-85
2022/09/19 16:23:02;;;;;;;1.83;0.70;;;;;;;;;;4952987;28;20444;-86
2022/09/19 16:25:51;;;;;;;1.57;0.53;;;;;;;;;;4952214;28;20386;-86
2022/09/19 16:28:19;;;;;;;1.50;0.65;;;;;;;;;;4958658;28;20402;-86
2022/09/19 16:30:54;;;;;;;0.65;0.30;;;;;;;;;;4952092;28;20393;-85
2022/09/19 16:33:21;;;;;;;1.00;0.40;;;;;;;;;;4957202;28;20471;-86
2022/09/19 16:35:54;;;;;;;1.50;0.40;;;;;;;;;;4960601;28;20448;-87
2022/09/19 16:38:24;;;;;;;0.70;0.38;;;;;;;;;;4951758;28;20971;-85
2022/09/19 16:40:55;;;;;;;0.80;0.60;;;;;;;;;;4951722;28;20473;-84
2022/09/19 16:43:49;;;;;;;1.38;0.40;;;;;;;;;;5034058;28;20755;-86
2022/09/19 16:46:15;;;;;;;1.13;0.32;;;;;;;;;;5018668;28;20405;-84
2022/09/19 16:48:41;;;;;;;0.50;0.30;;;;;;;;;;4954588;28;20424;-83
2022/09/19 16:51:11;;;;;;;2.03;0.65;;;;;;;;;;4954291;28;20425;-84
2022/09/19 16:53:37;;;;;;;1.80;0.47;;;;;;;;;;4954485;28;20394;-84
2022/09/19 16:56:04;;;;;;;1.35;0.52;;;;;;;;;;4954608;28;20473;-84
2022/09/19 16:58:30;;;;;;;1.27;0.47;;;;;;;;;;4949760;28;20423;-85
2022/09/19 17:00:56;;;;;;;1.15;0.40;;;;;;;;;;4962100;28;20458;-84
2022/09/19 17:03:22;;;;;;;1.58;0.28;;;;;;;;;;4952978;28;20402;-83
2022/09/19 17:05:48;;;;;;;2.70;0.40;;;;;;;;;;4946629;28;20730;-83
2022/09/19 17:08:15;;;;;;;1.17;0.45;;;;;;;;;;4953148;28;20389;-84
2022/09/19 17:10:41;;;;;;;1.08;0.40;;;;;;;;;;4953067;28;20382;-83
2022/09/19 17:13:11;;;;;;;0.63;0.28;;;;;;;;;;4954086;28;20416;-82
2022/09/19 17:15:39;;;;;;;0.90;0.30;;;;;;;;;;4954697;28;20379;-84
2022/09/19 17:18:05;;;;;;;0.82;0.65;;;;;;;;;;4953686;28;20440;-82
2022/09/19 17:20:32;;;;;;;2.55;0.50;;;;;;;;;;4953341;28;20390;-81
2022/09/19 17:23:02;;;;;;;2.10;0.40;;;;;;;;;;4954271;28;20383;-81
2022/09/19 17:25:45;;;;;;;1.48;0.50;;;;;;;;;;4952026;28;20393;-82
2022/09/19 17:28:12;;;;;;;1.08;0.40;;;;;;;;;;4941746;28;20455;-81
2022/09/19 17:30:38;;;;;;;1.58;0.50;;;;;;;;;;4942440;28;20401;-82
2022/09/19 17:33:05;;;;;;;1.83;0.50;;;;;;;;;;4949396;28;20394;-82
2022/09/19 17:35:31;;;;;;;1.60;0.50;;;;;;;;;;4947656;28;20473;-81
2022/09/19 17:37:57;;;;;;;1.20;0.40;;;;;;;;;;4941702;28;20916;-81
2022/09/19 17:40:25;;;;;;;1.67;0.50;;;;;;;;;;4939311;28;20416;-82
2022/09/19 17:42:52;;;;;;;2.50;0.45;;;;;;;;;;4946253;28;20417;-82
2022/09/19 17:45:25;;;;;;;1.67;0.32;;;;;;;;;;4947238;28;20444;-81
2022/09/19 17:47:51;;;;;;;1.20;0.32;;;;;;;;;;4943608;28;20411;-83
2022/09/19 17:50:17;;;;;;;1.38;0.35;;;;;;;;;;4948743;28;20405;-83
2022/09/19 17:52:43;;;;;;;1.40;0.40;;;;;;;;;;4946889;28;20837;-82
2022/09/19 17:55:09;;;;;;;1.10;0.40;;;;;;;;;;4949798;28;20398;-82
2022/09/19 17:57:37;;;;;;;0.80;0.30;;;;;;;;;;5027600;28;20467;-82
2022/09/19 18:00:03;;;;;;;0.82;0.40;;;;;;;;;;5020086;28;20412;-82
2022/09/19 18:05:15;;;;;;;0.70;0.40;;;;;;;;;;4951790;28;20456;-84
2022/09/19 18:07:41;;;;;;;3.20;0.50;;;;;;;;;;5015103;28;20580;-83
2022/09/19 18:10:08;;;;;;;1.43;0.40;;;;;;;;;;4950346;28;20931;-81
2022/09/19 18:12:35;;;;;;;0.65;0.40;;;;;;;;;;4945651;28;20455;-83
2022/09/19 18:15:01;;;;;;;1.70;0.50;;;;;;;;;;4948358;28;20807;-83
2022/09/19 18:17:31;;;;;;;1.55;0.70;;;;;;;;;;5029495;28;20492;-83
2022/09/19 18:19:58;;;;;;;0.70;0.40;;;;;;;;;;4946382;28;20529;-80
2022/09/19 18:22:25;;;;;;;2.13;0.82;;;;;;;;;;4945533;28;20555;-81
2022/09/19 18:24:51;;;;;;;2.05;0.70;;;;;;;;;;4946538;28;20408;-81
2022/09/19 18:27:17;;;;;;;2.30;0.50;;;;;;;;;;5031619;28;20397;-82
2022/09/19 18:29:43;;;;;;;3.00;0.50;;;;;;;;;;5011212;28;20769;-82
2022/09/19 18:32:09;;;;;;;1.27;0.43;;;;;;;;;;4948625;28;20579;-82
2022/09/19 18:34:35;;;;;;;2.10;0.68;;;;;;;;;;4945984;28;20884;-82
2022/09/19 18:37:01;;;;;;;1.27;0.60;;;;;;;;;;4950259;28;20398;-82
2022/09/19 18:39:27;;;;;;;1.38;0.50;;;;;;;;;;4944201;28;20418;-82
2022/09/19 18:41:54;;;;;;;1.50;0.40;;;;;;;;;;4950490;28;20475;-81
2022/09/19 18:44:20;;;;;;;1.02;0.40;;;;;;;;;;4942929;28;20405;-82
2022/09/19 18:46:47;;;;;;;3.15;0.68;;;;;;;;;;4956466;28;20434;-81
2022/09/19 18:49:15;;;;;;;0.93;0.60;;;;;;;;;;4951715;28;20439;-81
2022/09/19 18:51:42;;;;;;;1.08;0.63;;;;;;;;;;5030229;28;20941;-81
2022/09/19 18:54:08;;;;;;;1.85;0.70;;;;;;;;;;4947007;28;20442;-81
2022/09/19 18:56:34;;;;;;;1.50;0.63;;;;;;;;;;4950479;28;21242;-81
2022/09/19 18:59:02;;;;;;;1.10;0.70;;;;;;;;;;5027928;28;20970;-81
2022/09/19 19:01:29;;;;;;;1.20;0.70;;;;;;;;;;4949359;28;20732;-81
2022/09/19 19:03:57;;;;;;;1.20;0.80;;;;;;;;;;4935395;28;20511;-81
2022/09/19 19:06:23;;;;;;;2.78;1.50;;;;;;;;;;4936689;28;20399;-81
2022/09/19 19:08:50;;;;;;;1.20;0.75;;;;;;;;;;5011619;28;20435;-81
2022/09/19 19:11:18;;;;;;;1.13;0.88;;;;;;;;;;5029522;28;20414;-81
2022/09/19 19:13:47;;;;;;;1.48;0.98;;;;;;;;;;4950091;28;20426;-81
2022/09/19 19:16:15;;;;;;;2.13;0.95;;;;;;;;;;4940336;28;22555;-81
2022/09/19 19:18:41;;;;;;;1.23;0.80;;;;;;;;;;4944883;28;20450;-82
2022/09/19 19:21:08;;;;;;;3.50;1.20;;;;;;;;;;4941239;28;20402;-80
2022/09/19 19:23:35;;;;;;;2.13;1.45;;;;;;;;;;5018611;28;20408;-81
2022/09/19 19:26:02;;;;;;;2.83;0.85;;;;;;;;;;4941669;28;20894;-82
2022/09/19 19:28:28;;;;;;;1.52;1.02;;;;;;;;;;4948932;28;20418;-81
2022/09/19 19:30:55;;;;;;;1.27;0.80;;;;;;;;;;4945272;28;20415;-81
2022/09/19 19:33:22;;;;;;;3.03;1.02;;;;;;;;;;4937851;28;20489;-81
2022/09/19 19:36:00;;;;;;;1.52;0.80;;;;;;;;;;4937034;28;20849;-81
2022/09/19 19:38:36;;;;;;;1.23;0.90;;;;;;;;;;4937268;28;20424;-81
2022/09/19 19:41:03;;;;;;;2.25;1.10;;;;;;;;;;4935163;28;20455;-81
2022/09/19 19:43:30;;;;;;;3.70;1.77;;;;;;;;;;4936604;28;20410;-81
2022/09/19 19:46:01;;;;;;;4.00;2.10;;;;;;;;;;4935762;28;20429;-81
2022/09/19 19:48:28;;;;;;;2.10;0.90;;;;;;;;;;4938618;28;20408;-81
2022/09/19 19:50:58;;;;;;;2.65;0.90;;;;;;;;;;4933272;28;20416;-81
2022/09/19 19:53:25;;;;;;;1.85;0.88;;;;;;;;;;4934279;28;20403;-81
2022/09/19 19:55:55;;;;;;;2.92;0.70;;;;;;;;;;4933229;28;20400;-81
2022/09/19 19:58:21;;;;;;;3.47;1.00;;;;;;;;;;4940273;28;20384;-80
2022/09/19 20:00:48;;;;;;;2.70;0.80;;;;;;;;;;4934907;28;20425;-79
2022/09/19 20:03:15;;;;;;;1.90;1.20;;;;;;;;;;4932905;28;20412;-80
2022/09/19 20:05:47;;;;;;;3.33;1.10;;;;;;;;;;4948724;28;20396;-80
2022/09/19 20:08:14;;;;;;;1.42;0.90;;;;;;;;;;4947058;28;20382;-80
2022/09/19 20:10:40;;;;;;;2.47;1.17;;;;;;;;;;4947228;28;20382;-80
2022/09/19 20:13:06;;;;;;;2.38;1.33;;;;;;;;;;4943937;28;20463;-80
2022/09/19 20:15:32;;;;;;;1.30;0.85;;;;;;;;;;4941966;28;20402;-80
2022/09/19 20:17:58;;;;;;;1.52;1.05;;;;;;;;;;4940696;28;20411;-81
2022/09/19 20:20:24;;;;;;;16.40;12.45;;;;;;;;;;4938917;28;20488;-81
2022/09/19 20:22:51;;;;;;;8.48;7.50;;;;;;;;;;5030055;28;20899;-80
2022/09/19 20:25:17;;;;;;;7.38;6.57;;;;;;;;;;4943215;28;20408;-81